aviador You're here:

KBKX Decoded Metar

BROOKINGS in SD, USA
Report Time2018-05-23 17:56:00
UTC Time2018-05-23 18:41:56
Flight Rules vfr VFR
Wind130° at 16 Gusting to 21 kt
W.Decomp.*RWY 12: 16.0 kt HW 1.1 kt RCW
RWY 17: 11.1 kt HW 11.5 kt LCW
W.Rank130° ranks 10
Current wind is above 130° avg. (8.2)
Visibility9999 m
Phenomena:N/A
Clouds:Overcast 035 Hf
Expected CloudBase > 2,400 ft AGL from Temp-Dew spread
Ceiling3,500 ft
Temp24°C (ISA +12)
Dew Point18°C (69% RH)
AAT21.0°C
QNH1018 hPa
Density Alt3,179 ft
Elevation1,647 ft
Report Wrong Elevation
Raw Report
KBKX 231756Z AUTO 13016G21KT 10SM OVC035 24/18 A3005 RMK AO2 PK
WND 13026/1712 SLP180 60001 T02390183 10239 20178 50001=

Extra information for KBKX:More info

Metar Taf Metar & Taf Last 4 Metars F.Rules Stats Wind Profile Meteogram Temp Stats Airport Information Weather charts Add Link Nearby VenuesMetar ALERT Operation Metar Decoded Social comments

AIRNAV info for KBKX